createdAt,value
2023-06-30T00:00:14.788Z,98849.70
2023-06-30T00:02:20.572Z,98852.77
2023-06-30T00:04:25.427Z,98848.96
2023-06-30T00:06:30.354Z,98846.91
2023-06-30T00:08:35.134Z,98846.90
2023-06-30T00:10:39.973Z,98848.19
2023-06-30T00:12:44.660Z,98847.45
2023-06-30T00:14:49.408Z,98851.40
2023-06-30T00:16:54.157Z,98848.91
2023-06-30T00:18:59.270Z,98847.13
2023-06-30T00:21:03.932Z,98841.87
2023-06-30T00:23:08.813Z,98840.63
2023-06-30T00:25:15.273Z,98841.75
2023-06-30T00:27:20.231Z,98838.94
2023-06-30T00:29:25.061Z,98842.90
2023-06-30T00:31:29.988Z,98835.45
2023-06-30T00:33:34.780Z,98837.25
2023-06-30T00:35:39.437Z,98835.19
2023-06-30T00:37:44.154Z,98835.13
2023-06-30T00:39:48.852Z,98838.64
2023-06-30T00:41:53.644Z,98831.80
2023-06-30T00:43:58.414Z,98831.96
2023-06-30T00:46:04.070Z,98831.67
2023-06-30T00:48:09.283Z,98833.73
2023-06-30T00:50:14.591Z,98836.72
2023-06-30T00:52:19.431Z,98832.65
2023-06-30T00:54:24.641Z,98829.84
2023-06-30T00:56:29.380Z,98824.86
2023-06-30T00:58:34.574Z,98825.30
2023-06-30T01:00:39.378Z,98820.65
2023-06-30T01:05:37.404Z,98820.64
2023-06-30T01:07:49.345Z,98823.59
2023-06-30T01:09:58.211Z,98820.70
2023-06-30T01:12:03.637Z,98821.30
2023-06-30T01:14:10.642Z,98821.28
2023-06-30T01:16:17.625Z,98821.92
2023-06-30T01:18:24.237Z,98829.13
2023-06-30T01:20:33.706Z,98823.88
2023-06-30T01:22:45.020Z,98827.85
2023-06-30T01:24:54.831Z,98826.68
2023-06-30T01:26:59.885Z,98824.09
2023-06-30T01:29:05.918Z,98822.04
2023-06-30T01:31:11.569Z,98823.09
2023-06-30T01:33:19.640Z,98822.65
2023-06-30T01:35:25.349Z,98823.19
2023-06-30T01:37:30.462Z,98819.61
2023-06-30T01:39:36.279Z,98819.72
2023-06-30T01:41:41.342Z,98816.09
2023-06-30T01:43:48.403Z,98815.98
2023-06-30T01:45:57.088Z,98818.25
2023-06-30T02:03:24.112Z,98818.48
2023-06-30T02:05:29.393Z,98818.85
2023-06-30T02:07:35.010Z,98821.52
2023-06-30T02:09:47.823Z,98823.02
2023-06-30T02:11:53.929Z,98823.78
2023-06-30T02:14:00.614Z,98822.80
2023-06-30T02:16:06.086Z,98822.51
2023-06-30T02:18:11.068Z,98822.89
2023-06-30T02:20:17.098Z,98820.98
2023-06-30T02:22:22.296Z,98822.36
2023-06-30T02:24:27.288Z,98824.52
2023-06-30T02:26:32.589Z,98823.00
2023-06-30T02:28:37.451Z,98818.69
2023-06-30T02:30:42.348Z,98816.74
2023-06-30T02:32:47.353Z,98809.89
2023-06-30T02:34:52.488Z,98808.77
2023-06-30T02:36:57.641Z,98804.79
2023-06-30T02:39:03.783Z,98806.23
2023-06-30T02:41:08.678Z,98803.12
2023-06-30T02:43:13.679Z,98802.09
2023-06-30T02:45:18.941Z,98802.36
2023-06-30T02:47:24.132Z,98799.89
2023-06-30T02:49:29.514Z,98797.09
2023-06-30T02:51:35.424Z,98795.25
2023-06-30T02:53:40.699Z,98791.41
2023-06-30T02:55:45.909Z,98791.02
2023-06-30T02:57:52.205Z,98790.54
2023-06-30T02:59:57.262Z,98791.00
2023-06-30T03:02:02.287Z,98790.79
2023-06-30T03:04:08.408Z,98794.90
2023-06-30T03:06:13.781Z,98792.89
2023-06-30T03:08:18.940Z,98788.78
2023-06-30T03:10:24.804Z,98788.77
2023-06-30T03:12:30.243Z,98784.50
2023-06-30T03:14:35.997Z,98784.52
2023-06-30T03:16:41.035Z,98786.85
2023-06-30T03:18:46.714Z,98790.04
2023-06-30T03:20:51.908Z,98789.95
2023-06-30T03:22:56.754Z,98790.98
2023-06-30T03:25:02.273Z,98793.03
2023-06-30T03:27:07.784Z,98787.80
2023-06-30T03:29:12.887Z,98787.58
2023-06-30T03:31:17.833Z,98785.47
2023-06-30T03:33:22.898Z,98789.91
2023-06-30T03:35:27.906Z,98787.80
2023-06-30T03:37:33.006Z,98783.86
2023-06-30T03:39:38.048Z,98787.13
2023-06-30T03:41:43.138Z,98786.75
2023-06-30T03:43:48.202Z,98784.17
2023-06-30T03:45:53.262Z,98785.47
2023-06-30T03:47:59.037Z,98783.48
2023-06-30T03:50:06.226Z,98782.83
2023-06-30T03:52:11.266Z,98784.19
2023-06-30T03:54:18.869Z,98783.80
2023-06-30T03:56:24.511Z,98784.67
2023-06-30T03:58:29.342Z,98783.87
2023-06-30T04:00:34.219Z,98780.46
2023-06-30T04:02:39.274Z,98780.38
2023-06-30T04:04:50.214Z,98778.77
2023-06-30T04:06:58.215Z,98777.08
2023-06-30T04:09:03.303Z,98775.17
2023-06-30T04:11:08.355Z,98774.91
2023-06-30T04:13:13.358Z,98772.58
2023-06-30T04:15:18.400Z,98770.91
2023-06-30T04:17:23.208Z,98766.84
2023-06-30T04:19:28.157Z,98768.90
2023-06-30T04:21:33.054Z,98771.70
2023-06-30T04:23:38.577Z,98769.11
2023-06-30T04:25:43.644Z,98766.73
2023-06-30T04:30:15.008Z,98770.80
2023-06-30T04:32:20.071Z,98767.34
2023-06-30T04:34:28.012Z,98766.91
2023-06-30T04:36:32.978Z,98771.61
2023-06-30T04:38:37.898Z,98769.17
2023-06-30T04:40:42.861Z,98773.23
2023-06-30T04:42:47.903Z,98774.84
2023-06-30T04:44:52.890Z,98773.16
2023-06-30T04:46:57.895Z,98770.62
2023-06-30T04:49:02.882Z,98769.92
2023-06-30T04:51:08.020Z,98770.06
2023-06-30T04:53:12.926Z,98768.96
2023-06-30T04:55:17.918Z,98762.58
2023-06-30T04:57:22.824Z,98760.81
2023-06-30T04:59:27.722Z,98760.58
2023-06-30T05:01:32.698Z,98759.90
2023-06-30T05:03:37.747Z,98757.30
2023-06-30T05:05:42.996Z,98756.93
2023-06-30T05:07:48.015Z,98753.79
2023-06-30T05:09:52.966Z,98751.59
2023-06-30T05:11:58.004Z,98751.35
2023-06-30T05:14:02.882Z,98749.51
2023-06-30T05:16:12.038Z,98747.80
2023-06-30T05:18:19.802Z,98746.09
2023-06-30T05:20:24.735Z,98747.98
2023-06-30T05:22:29.609Z,98753.15
2023-06-30T05:24:34.599Z,98750.73
2023-06-30T05:26:39.429Z,98751.82
2023-06-30T05:28:52.766Z,98750.49
2023-06-30T05:31:05.756Z,98746.85
2023-06-30T05:33:10.636Z,98744.98
2023-06-30T05:35:15.588Z,98745.10
2023-06-30T05:37:20.630Z,98748.18
2023-06-30T05:39:25.456Z,98749.60
2023-06-30T05:41:30.314Z,98752.13
2023-06-30T05:43:38.836Z,98754.95
2023-06-30T05:45:44.007Z,98754.89
2023-06-30T05:47:49.137Z,98751.33
2023-06-30T05:49:54.223Z,98750.73
2023-06-30T05:51:59.111Z,98754.45
2023-06-30T05:54:04.244Z,98753.22
2023-06-30T05:56:09.275Z,98754.54
2023-06-30T05:58:14.312Z,98752.40
2023-06-30T06:00:23.369Z,98751.02
2023-06-30T06:02:28.743Z,98752.44
2023-06-30T06:04:34.048Z,98753.57
2023-06-30T06:06:39.138Z,98752.11
2023-06-30T06:08:46.742Z,98752.45
2023-06-30T06:10:51.661Z,98749.96
2023-06-30T06:12:56.985Z,98753.20
2023-06-30T06:15:01.914Z,98756.15
2023-06-30T06:17:07.167Z,98752.55
2023-06-30T06:19:12.116Z,98752.73
2023-06-30T06:21:17.610Z,98748.17
2023-06-30T06:23:22.819Z,98748.67
2023-06-30T06:25:27.842Z,98749.88
2023-06-30T06:27:36.095Z,98749.48
2023-06-30T06:29:41.007Z,98754.48
2023-06-30T06:31:46.063Z,98753.15
2023-06-30T06:33:51.185Z,98757.94
2023-06-30T06:35:56.574Z,98753.33
2023-06-30T06:38:01.567Z,98759.90
2023-06-30T06:40:08.214Z,98762.28
2023-06-30T06:42:13.039Z,98766.24
2023-06-30T06:44:18.166Z,98766.02
2023-06-30T06:46:23.053Z,98764.86
2023-06-30T06:48:29.044Z,98762.64
2023-06-30T06:50:36.438Z,98763.66
2023-06-30T06:52:41.618Z,98757.50
2023-06-30T06:54:47.306Z,98754.17
2023-06-30T06:56:52.274Z,98749.73
2023-06-30T06:58:57.095Z,98749.59
2023-06-30T07:01:02.169Z,98752.73
2023-06-30T07:03:07.091Z,98754.65
2023-06-30T07:05:14.483Z,98750.13
2023-06-30T07:07:19.345Z,98751.98
2023-06-30T07:09:24.470Z,98749.09
2023-06-30T07:11:29.388Z,98746.23
2023-06-30T07:13:34.281Z,98746.41
2023-06-30T07:15:39.231Z,98748.70
2023-06-30T07:17:44.676Z,98739.85
2023-06-30T07:19:49.752Z,98743.27
2023-06-30T07:21:55.829Z,98743.05
2023-06-30T07:24:01.093Z,98750.09
2023-06-30T07:26:06.063Z,98753.22
2023-06-30T07:28:11.155Z,98754.26
2023-06-30T07:30:17.164Z,98754.81
2023-06-30T07:32:22.103Z,98754.19
2023-06-30T07:34:27.560Z,98750.54
2023-06-30T07:36:32.450Z,98751.01
2023-06-30T07:38:37.247Z,98752.79
2023-06-30T07:40:54.838Z,98750.50
2023-06-30T07:43:01.991Z,98748.67
2023-06-30T07:45:09.466Z,98746.95
2023-06-30T07:47:14.461Z,98743.27
2023-06-30T07:49:19.613Z,98742.85
2023-06-30T07:51:24.977Z,98741.69
2023-06-30T07:53:30.021Z,98738.41
2023-06-30T07:55:35.041Z,98736.92
2023-06-30T07:57:40.288Z,98736.23
2023-06-30T07:59:45.177Z,98737.23
2023-06-30T08:01:50.127Z,98733.66
2023-06-30T08:03:55.289Z,98731.35
2023-06-30T08:06:00.772Z,98732.11
2023-06-30T08:08:06.517Z,98727.69
2023-06-30T08:10:12.434Z,98729.52
2023-06-30T08:12:17.415Z,98730.94
2023-06-30T08:14:22.589Z,98731.63
2023-06-30T08:16:28.467Z,98732.20
2023-06-30T08:18:34.962Z,98733.41
2023-06-30T08:20:40.381Z,98734.17
2023-06-30T08:23:06.663Z,98733.52
2023-06-30T08:25:11.793Z,98734.88
2023-06-30T08:27:16.845Z,98733.01
2023-06-30T08:29:21.656Z,98728.81
2023-06-30T08:31:26.753Z,98729.52
2023-06-30T08:35:40.203Z,98732.35
2023-06-30T08:37:45.439Z,98731.73
2023-06-30T08:39:50.302Z,98731.06
2023-06-30T08:41:56.816Z,98727.30
2023-06-30T08:44:03.615Z,98722.21
2023-06-30T08:46:10.178Z,98722.83
2023-06-30T08:48:16.946Z,98717.39
2023-06-30T08:50:22.949Z,98714.13
2023-06-30T08:52:28.105Z,98719.52
2023-06-30T08:54:34.299Z,98713.98
2023-06-30T08:56:43.232Z,98716.70
2023-06-30T08:58:48.476Z,98717.80
2023-06-30T09:00:54.169Z,98721.88
2023-06-30T09:02:59.482Z,98718.96
2023-06-30T09:05:05.614Z,98719.31
2023-06-30T09:07:14.102Z,98717.48
2023-06-30T09:09:26.290Z,98723.13
2023-06-30T09:11:33.024Z,98719.45
2023-06-30T09:13:40.901Z,98723.44
2023-06-30T09:15:46.990Z,98720.50
2023-06-30T09:17:52.898Z,98719.36
2023-06-30T09:19:59.049Z,98720.39
2023-06-30T09:22:54.951Z,98720.25
2023-06-30T09:24:31.010Z,98714.76
2023-06-30T09:26:36.039Z,98714.21
2023-06-30T09:28:43.314Z,98713.95
2023-06-30T09:30:48.999Z,98715.14
2023-06-30T09:32:56.215Z,98708.80
2023-06-30T09:35:05.933Z,98704.16
2023-06-30T09:37:19.308Z,98702.73
2023-06-30T09:39:25.258Z,98703.00
2023-06-30T09:41:31.968Z,98702.94
2023-06-30T09:43:38.024Z,98707.09
2023-06-30T09:45:49.406Z,98701.21
2023-06-30T09:47:55.701Z,98703.12
2023-06-30T09:50:00.781Z,98695.50
2023-06-30T09:52:06.822Z,98688.42
2023-06-30T09:54:12.468Z,98690.65
2023-06-30T09:56:23.432Z,98689.38
2023-06-30T09:58:28.519Z,98686.95
2023-06-30T10:00:35.977Z,98688.08
2023-06-30T10:02:42.420Z,98686.46
2023-06-30T10:04:49.373Z,98683.92
2023-06-30T10:06:55.510Z,98682.01
2023-06-30T10:09:04.443Z,98684.13
2023-06-30T10:11:10.645Z,98682.47
2023-06-30T10:13:17.639Z,98681.69
2023-06-30T10:15:22.629Z,98680.08
2023-06-30T10:17:28.292Z,98678.61
2023-06-30T10:19:36.234Z,98674.95
2023-06-30T10:21:41.378Z,98676.77
2023-06-30T10:23:49.785Z,98674.69
2023-06-30T10:25:55.532Z,98671.63
2023-06-30T10:28:00.929Z,98676.40
2023-06-30T10:30:07.102Z,98668.11
2023-06-30T10:32:12.466Z,98669.31
2023-06-30T10:34:17.941Z,98669.54
2023-06-30T10:36:24.070Z,98662.42
2023-06-30T10:38:29.578Z,98662.60
2023-06-30T10:40:34.577Z,98651.64
2023-06-30T10:42:45.802Z,98649.84
2023-06-30T10:44:50.672Z,98647.52
2023-06-30T10:46:58.252Z,98645.65
2023-06-30T10:49:07.918Z,98644.79
2023-06-30T10:51:14.926Z,98643.11
2023-06-30T10:53:20.497Z,98635.48
2023-06-30T10:55:29.082Z,98635.08
2023-06-30T10:57:37.508Z,98632.22
2023-06-30T10:59:44.027Z,98631.06
2023-06-30T11:02:23.759Z,98625.78
2023-06-30T11:04:38.376Z,98630.89
2023-06-30T11:07:02.808Z,98630.67
2023-06-30T11:09:11.270Z,98627.20
2023-06-30T11:11:20.543Z,98619.51
2023-06-30T11:13:38.420Z,98619.86
2023-06-30T11:15:51.855Z,98616.75
2023-06-30T11:18:03.370Z,98614.93
2023-06-30T11:20:16.045Z,98609.66
2023-06-30T11:22:30.299Z,98606.36
2023-06-30T11:24:36.761Z,98602.66
2023-06-30T11:26:44.978Z,98596.85
2023-06-30T11:28:50.550Z,98591.56
2023-06-30T11:30:55.654Z,98588.65
2023-06-30T11:33:01.307Z,98587.55
2023-06-30T11:35:07.840Z,98585.39
2023-06-30T11:37:12.898Z,98583.78
2023-06-30T11:39:18.280Z,98581.51
2023-06-30T11:41:24.405Z,98578.67
2023-06-30T11:43:34.682Z,98569.19
2023-06-30T11:45:40.078Z,98566.98
2023-06-30T11:47:45.906Z,98563.86
2023-06-30T11:49:51.205Z,98560.95
2023-06-30T11:51:57.446Z,98551.83
2023-06-30T11:54:02.535Z,98548.27
2023-06-30T11:56:07.908Z,98548.34
2023-06-30T11:58:18.162Z,98549.73
2023-06-30T12:00:25.145Z,98545.69
2023-06-30T12:02:36.103Z,98545.98
2023-06-30T12:04:48.548Z,98539.23
2023-06-30T12:06:57.231Z,98536.80
2023-06-30T12:09:04.097Z,98533.61
2023-06-30T12:11:09.252Z,98538.90
2023-06-30T12:13:16.725Z,98545.80
2023-06-30T12:15:21.696Z,98543.59
2023-06-30T12:17:29.016Z,98543.21
2023-06-30T12:19:34.154Z,98541.70
2023-06-30T12:21:53.246Z,98542.39
2023-06-30T12:23:58.995Z,98535.44
2023-06-30T12:26:04.244Z,98532.28
2023-06-30T12:28:09.474Z,98530.30
2023-06-30T12:30:18.528Z,98529.59
2023-06-30T12:32:26.591Z,98527.57
2023-06-30T12:34:35.412Z,98521.41
2023-06-30T12:36:40.539Z,98517.19
2023-06-30T12:38:46.111Z,98521.46
2023-06-30T12:40:51.942Z,98513.88
2023-06-30T12:42:57.602Z,98511.27
2023-06-30T12:45:02.615Z,98510.86
2023-06-30T12:47:08.784Z,98506.16
2023-06-30T12:49:13.949Z,98504.25
2023-06-30T12:51:19.053Z,98500.38
2023-06-30T12:53:24.120Z,98493.52
2023-06-30T12:55:29.413Z,98487.29
2023-06-30T12:57:34.338Z,98485.61
2023-06-30T12:59:39.224Z,98484.61
2023-06-30T13:01:44.130Z,98485.66
2023-06-30T13:03:49.485Z,98477.98
2023-06-30T13:05:54.552Z,98474.38
2023-06-30T13:07:59.579Z,98469.39
2023-06-30T13:10:09.222Z,98469.00
2023-06-30T13:12:14.057Z,98467.49
2023-06-30T13:14:18.857Z,98464.95
2023-06-30T13:16:23.829Z,98463.23
2023-06-30T13:18:28.817Z,98459.30
2023-06-30T13:20:33.758Z,98456.62
2023-06-30T13:22:50.710Z,98453.13
2023-06-30T13:25:01.101Z,98447.07
2023-06-30T13:27:06.921Z,98445.22
2023-06-30T13:29:12.646Z,98442.89
2023-06-30T13:31:17.541Z,98439.89
2023-06-30T13:33:23.068Z,98428.66
2023-06-30T13:35:27.988Z,98424.64
2023-06-30T13:37:33.365Z,98422.61
2023-06-30T13:39:39.780Z,98417.74
2023-06-30T13:41:45.037Z,98411.40
2023-06-30T13:43:49.955Z,98407.21
2023-06-30T13:45:54.965Z,98401.60
2023-06-30T13:47:59.915Z,98405.40
2023-06-30T13:50:05.527Z,98401.40
2023-06-30T13:52:10.467Z,98400.27
2023-06-30T13:54:15.257Z,98394.91
2023-06-30T13:56:20.107Z,98398.73
2023-06-30T13:58:25.297Z,98391.98
2023-06-30T14:00:32.042Z,98389.27
2023-06-30T14:02:37.012Z,98384.73
2023-06-30T14:04:41.934Z,98385.66
2023-06-30T14:06:46.857Z,98382.21
2023-06-30T14:08:51.679Z,98381.48
2023-06-30T14:10:57.499Z,98372.80
2023-06-30T14:13:03.947Z,98370.27
2023-06-30T14:15:10.592Z,98373.16
2023-06-30T14:17:15.503Z,98373.46
2023-06-30T14:19:20.324Z,98368.48
2023-06-30T14:21:25.575Z,98362.80
2023-06-30T14:23:30.608Z,98365.05
2023-06-30T14:25:35.538Z,98367.37
2023-06-30T14:27:40.459Z,98361.92
2023-06-30T14:29:45.581Z,98354.55
2023-06-30T14:31:50.345Z,98346.70
2023-06-30T14:33:55.314Z,98343.17
2023-06-30T14:36:00.204Z,98339.86
2023-06-30T14:38:05.019Z,98339.27
2023-06-30T14:40:11.976Z,98334.86
2023-06-30T14:42:30.990Z,98335.66
2023-06-30T14:44:37.360Z,98327.98
2023-06-30T14:46:42.196Z,98328.80
2023-06-30T14:48:47.162Z,98324.52
2023-06-30T14:50:55.012Z,98326.94
2023-06-30T14:52:59.774Z,98322.64
2023-06-30T14:55:05.202Z,98326.05
2023-06-30T14:57:10.075Z,98330.60
2023-06-30T14:59:15.036Z,98330.52
2023-06-30T15:01:20.282Z,98324.36
2023-06-30T15:03:25.537Z,98322.36
2023-06-30T15:05:30.706Z,98309.86
2023-06-30T15:07:35.699Z,98307.86
2023-06-30T15:09:40.690Z,98301.38
2023-06-30T15:11:48.634Z,98310.66
2023-06-30T15:13:53.551Z,98309.94
2023-06-30T15:18:23.453Z,98304.72
2023-06-30T15:20:28.321Z,98303.77
2023-06-30T15:22:33.213Z,98307.02
2023-06-30T15:24:41.093Z,98309.36
2023-06-30T15:26:46.247Z,98303.80
2023-06-30T15:28:51.229Z,98303.83
2023-06-30T15:30:56.248Z,98301.81
2023-06-30T15:33:01.217Z,98297.31
2023-06-30T15:35:07.506Z,98295.70
2023-06-30T15:37:12.918Z,98294.12
2023-06-30T15:39:17.908Z,98288.79
2023-06-30T15:41:23.464Z,98294.39
2023-06-30T15:43:28.516Z,98294.71
2023-06-30T15:45:33.442Z,98295.98
2023-06-30T15:47:38.736Z,98301.12
2023-06-30T15:49:43.822Z,98303.91
2023-06-30T15:51:51.306Z,98304.44
2023-06-30T15:53:56.356Z,98306.73
2023-06-30T15:56:01.361Z,98305.48
2023-06-30T15:58:06.314Z,98306.15
2023-06-30T16:00:13.291Z,98299.91
2023-06-30T16:02:20.061Z,98297.48
2023-06-30T16:04:25.062Z,98296.13
2023-06-30T16:06:30.011Z,98298.22
2023-06-30T16:08:36.066Z,98297.49
2023-06-30T16:10:40.905Z,98295.05
2023-06-30T16:12:45.884Z,98298.45
2023-06-30T16:14:50.701Z,98304.94
2023-06-30T16:16:55.710Z,98306.81
2023-06-30T16:19:00.972Z,98311.83
2023-06-30T16:21:06.038Z,98315.09
2023-06-30T16:23:11.125Z,98314.14
2023-06-30T16:25:16.278Z,98312.63
2023-06-30T16:27:21.144Z,98312.86
2023-06-30T16:29:32.419Z,98313.58
2023-06-30T16:31:37.384Z,98317.12
2023-06-30T16:33:42.826Z,98319.98
2023-06-30T16:35:48.321Z,98321.54
2023-06-30T16:37:54.057Z,98324.05
2023-06-30T16:39:59.053Z,98326.64
2023-06-30T16:42:04.165Z,98326.86
2023-06-30T16:44:09.166Z,98322.20
2023-06-30T16:46:14.158Z,98322.88
2023-06-30T16:48:19.159Z,98327.05
2023-06-30T16:50:24.564Z,98327.62
2023-06-30T16:52:29.548Z,98328.96
2023-06-30T16:54:34.372Z,98332.61
2023-06-30T16:56:39.448Z,98329.48
2023-06-30T16:58:44.430Z,98328.59
2023-06-30T17:00:49.502Z,98330.71
2023-06-30T17:02:55.824Z,98333.38
2023-06-30T17:05:00.884Z,98337.36
2023-06-30T17:07:06.631Z,98337.95
2023-06-30T17:09:12.237Z,98339.96
2023-06-30T17:11:18.481Z,98343.27
2023-06-30T17:13:23.792Z,98340.71
2023-06-30T17:15:29.681Z,98345.04
2023-06-30T17:17:35.756Z,98343.63
2023-06-30T17:19:41.780Z,98345.14
2023-06-30T17:21:47.536Z,98344.56
2023-06-30T17:23:52.867Z,98346.19
2023-06-30T17:25:58.589Z,98350.48
2023-06-30T17:28:04.502Z,98356.98
2023-06-30T17:30:11.907Z,98366.77
2023-06-30T17:32:17.224Z,98381.15
2023-06-30T17:34:22.648Z,98397.08
2023-06-30T17:36:27.732Z,98402.21
2023-06-30T17:38:33.194Z,98401.31
2023-06-30T17:40:39.094Z,98409.73
2023-06-30T17:42:44.194Z,98424.41
2023-06-30T17:44:49.415Z,98452.23
2023-06-30T17:46:54.958Z,98456.01
2023-06-30T17:49:23.598Z,98436.77
2023-06-30T17:51:28.893Z,98413.61
2023-06-30T17:53:35.013Z,98391.39
2023-06-30T17:55:40.184Z,98397.07
2023-06-30T17:57:45.260Z,98407.70
2023-06-30T17:59:50.517Z,98412.73
2023-06-30T18:01:55.811Z,98413.14
2023-06-30T18:04:00.765Z,98406.34
2023-06-30T18:06:05.849Z,98403.63
2023-06-30T18:08:12.436Z,98390.88
2023-06-30T18:10:18.259Z,98383.84
2023-06-30T18:12:24.206Z,98375.23
2023-06-30T18:14:31.292Z,98366.18
2023-06-30T18:16:36.657Z,98360.10
2023-06-30T18:18:41.905Z,98359.95
2023-06-30T18:20:48.363Z,98348.27
2023-06-30T18:22:53.605Z,98341.29
2023-06-30T18:24:58.835Z,98343.13
2023-06-30T18:27:05.177Z,98346.96
2023-06-30T18:29:10.853Z,98362.10
2023-06-30T18:31:16.055Z,98373.35
2023-06-30T18:33:22.837Z,98376.59
2023-06-30T18:35:28.547Z,98381.94
2023-06-30T18:37:35.166Z,98383.00
2023-06-30T18:39:40.357Z,98377.89
2023-06-30T18:41:46.380Z,98379.59
2023-06-30T18:43:53.181Z,98387.55
2023-06-30T18:46:00.092Z,98397.17
2023-06-30T18:48:06.505Z,98407.26
2023-06-30T18:50:12.708Z,98418.45
2023-06-30T18:52:19.151Z,98422.56
2023-06-30T18:54:25.018Z,98431.82
2023-06-30T18:56:30.854Z,98444.05
2023-06-30T18:58:37.483Z,98439.45
2023-06-30T19:00:44.242Z,98433.94
2023-06-30T19:02:49.881Z,98430.86
2023-06-30T19:04:55.252Z,98439.91
2023-06-30T19:07:01.005Z,98442.66
2023-06-30T19:09:07.421Z,98444.42
2023-06-30T19:11:13.644Z,98447.55
2023-06-30T19:13:19.533Z,98449.63
2023-06-30T19:15:25.605Z,98449.64
2023-06-30T19:17:34.722Z,98447.58
2023-06-30T19:19:41.102Z,98455.23
2023-06-30T19:21:46.177Z,98459.11
2023-06-30T19:23:52.161Z,98458.42
2023-06-30T19:25:58.122Z,98458.95
2023-06-30T19:28:04.153Z,98461.83
2023-06-30T19:30:13.057Z,98459.27
2023-06-30T19:32:19.036Z,98460.56
2023-06-30T19:34:25.020Z,98462.90
2023-06-30T19:36:34.087Z,98462.05
2023-06-30T19:38:41.005Z,98462.16
2023-06-30T19:40:49.555Z,98467.45
2023-06-30T19:42:55.124Z,98468.58
2023-06-30T19:45:02.191Z,98471.13
2023-06-30T19:47:08.731Z,98472.36
2023-06-30T19:49:15.100Z,98478.80
2023-06-30T19:51:21.011Z,98482.02
2023-06-30T19:53:26.178Z,98481.02
2023-06-30T19:55:33.363Z,98478.71
2023-06-30T19:57:39.012Z,98479.93
2023-06-30T19:59:45.011Z,98483.52
2023-06-30T20:01:50.128Z,98481.83
2023-06-30T20:03:56.326Z,98480.06
2023-06-30T20:06:01.472Z,98478.23
2023-06-30T20:08:07.381Z,98480.15
2023-06-30T20:10:13.715Z,98485.72
2023-06-30T20:12:18.825Z,98488.98
2023-06-30T20:14:24.542Z,98492.38
2023-06-30T20:16:29.648Z,98495.80
2023-06-30T20:18:35.085Z,98501.17
2023-06-30T20:20:41.975Z,98499.30
2023-06-30T20:22:47.810Z,98509.04
2023-06-30T20:24:55.144Z,98515.33
2023-06-30T20:27:02.034Z,98512.35
2023-06-30T20:29:08.765Z,98515.31
2023-06-30T20:31:16.279Z,98517.80
2023-06-30T20:33:22.529Z,98522.94
2023-06-30T20:35:28.439Z,98517.91
2023-06-30T20:37:34.108Z,98521.20
2023-06-30T20:39:40.069Z,98515.08
2023-06-30T20:41:46.854Z,98521.08
2023-06-30T20:43:51.857Z,98524.01
2023-06-30T20:45:57.843Z,98529.86
2023-06-30T20:48:03.272Z,98532.36
2023-06-30T20:50:09.983Z,98539.39
2023-06-30T20:52:18.459Z,98539.18
2023-06-30T20:54:23.613Z,98543.92
2023-06-30T20:56:29.296Z,98549.29
2023-06-30T20:58:34.696Z,98546.64
2023-06-30T21:00:39.746Z,98548.06
2023-06-30T21:02:44.878Z,98548.35
2023-06-30T21:04:50.029Z,98549.72
2023-06-30T21:06:55.113Z,98544.96
2023-06-30T21:09:00.279Z,98542.52
2023-06-30T21:11:05.052Z,98537.35
2023-06-30T21:13:09.901Z,98540.07
2023-06-30T21:15:17.708Z,98536.72
2023-06-30T21:17:22.914Z,98536.29
2023-06-30T21:19:27.759Z,98541.05
2023-06-30T21:21:32.768Z,98538.56
2023-06-30T21:23:37.807Z,98540.73
2023-06-30T21:25:42.630Z,98538.07
2023-06-30T21:27:47.558Z,98537.31
2023-06-30T21:29:52.311Z,98533.30
2023-06-30T21:31:57.169Z,98528.91
2023-06-30T21:34:02.161Z,98532.58
2023-06-30T21:36:07.427Z,98532.73
2023-06-30T21:38:12.714Z,98531.64
2023-06-30T21:40:17.959Z,98537.70
2023-06-30T21:42:22.819Z,98534.34
2023-06-30T21:44:27.719Z,98537.24
2023-06-30T21:46:32.679Z,98536.14
2023-06-30T21:48:37.562Z,98537.48
2023-06-30T21:50:45.542Z,98540.38
2023-06-30T21:52:50.565Z,98543.02
2023-06-30T21:54:55.616Z,98549.84
2023-06-30T21:57:00.467Z,98553.13
2023-06-30T21:59:05.381Z,98547.92
2023-06-30T22:01:10.356Z,98547.66
2023-06-30T22:03:15.401Z,98544.86
2023-06-30T22:05:23.249Z,98539.29
2023-06-30T22:07:28.146Z,98534.16
2023-06-30T22:09:33.044Z,98530.58
2023-06-30T22:11:37.982Z,98525.77
2023-06-30T22:13:42.783Z,98523.64
2023-06-30T22:15:47.774Z,98522.58
2023-06-30T22:17:52.789Z,98515.81
2023-06-30T22:19:57.937Z,98504.66
2023-06-30T22:22:02.990Z,98498.75
2023-06-30T22:24:08.961Z,98495.45
2023-06-30T22:26:13.911Z,98489.55
2023-06-30T22:28:18.876Z,98488.02
2023-06-30T22:30:26.019Z,98484.08
2023-06-30T22:32:31.006Z,98482.52
2023-06-30T22:34:35.919Z,98477.64
2023-06-30T22:36:40.955Z,98480.84
2023-06-30T22:38:45.903Z,98484.93
2023-06-30T22:40:50.915Z,98484.33
2023-06-30T22:42:55.723Z,98481.77
2023-06-30T22:45:00.615Z,98481.11
2023-06-30T22:47:06.265Z,98481.25
2023-06-30T22:49:11.237Z,98486.33
2023-06-30T22:51:17.848Z,98486.08
2023-06-30T22:53:22.828Z,98482.65
2023-06-30T22:55:27.956Z,98482.77
2023-06-30T22:57:32.905Z,98484.30
2023-06-30T22:59:38.157Z,98485.12
2023-06-30T23:01:43.219Z,98487.88
2023-06-30T23:03:48.260Z,98490.70
2023-06-30T23:05:53.061Z,98492.01
2023-06-30T23:07:57.998Z,98492.73
2023-06-30T23:10:02.764Z,98486.55
2023-06-30T23:12:09.118Z,98487.12
2023-06-30T23:14:14.259Z,98487.34
2023-06-30T23:16:19.145Z,98484.55
2023-06-30T23:18:24.281Z,98484.61
2023-06-30T23:20:29.202Z,98484.90
2023-06-30T23:22:34.003Z,98482.92
2023-06-30T23:24:40.830Z,98487.24
2023-06-30T23:26:45.688Z,98489.02
2023-06-30T23:28:50.764Z,98490.91
2023-06-30T23:30:55.793Z,98490.96
2023-06-30T23:33:00.906Z,98493.45
2023-06-30T23:35:06.245Z,98493.11
2023-06-30T23:37:13.128Z,98489.92
2023-06-30T23:39:18.182Z,98490.63
2023-06-30T23:41:23.081Z,98494.09
2023-06-30T23:43:27.812Z,98493.60
2023-06-30T23:45:32.732Z,98498.89
2023-06-30T23:47:37.650Z,98497.87
2023-06-30T23:49:42.538Z,98493.70
2023-06-30T23:51:47.555Z,98488.85
2023-06-30T23:53:52.420Z,98485.63
2023-06-30T23:55:57.353Z,98488.54
2023-06-30T23:58:02.270Z,98488.98
